createdAt,value
2023-02-09T00:00:17.705Z,52.91
2023-02-09T00:03:09.959Z,53.02
2023-02-09T00:05:42.202Z,53.03
2023-02-09T00:08:14.558Z,52.92
2023-02-09T00:10:47.103Z,53.00
2023-02-09T00:13:25.398Z,53.36
2023-02-09T00:16:01.821Z,53.32
2023-02-09T00:18:35.403Z,53.43
2023-02-09T00:21:10.812Z,53.28
2023-02-09T00:23:43.989Z,53.39
2023-02-09T00:26:16.214Z,53.43
2023-02-09T00:28:48.609Z,53.45
2023-02-09T00:31:21.278Z,53.44
2023-02-09T00:33:53.926Z,53.68
2023-02-09T00:36:26.256Z,53.45
2023-02-09T00:38:58.771Z,53.58
2023-02-09T00:41:48.223Z,53.55
2023-02-09T00:44:20.597Z,53.14
2023-02-09T00:46:53.486Z,53.00
2023-02-09T00:49:27.318Z,53.14
2023-02-09T00:51:59.790Z,52.63
2023-02-09T00:54:34.216Z,52.38
2023-02-09T00:57:06.740Z,52.11
2023-02-09T00:59:40.915Z,51.74
2023-02-09T01:02:13.272Z,51.72
2023-02-09T01:04:45.652Z,51.90
2023-02-09T01:07:17.978Z,51.85
2023-02-09T01:09:50.467Z,51.89
2023-02-09T01:12:22.737Z,51.64
2023-02-09T01:14:55.297Z,51.47
2023-02-09T01:17:27.627Z,51.60
2023-02-09T01:20:00.515Z,51.50
2023-02-09T01:22:32.889Z,51.45
2023-02-09T01:25:05.671Z,51.29
2023-02-09T01:27:38.150Z,51.48
2023-02-09T01:30:12.612Z,51.45
2023-02-09T01:32:45.300Z,51.45
2023-02-09T01:35:18.346Z,51.33
2023-02-09T01:37:50.694Z,51.37
2023-02-09T01:40:23.076Z,51.08
2023-02-09T01:42:55.465Z,51.15
2023-02-09T01:45:35.419Z,51.26
2023-02-09T01:48:07.888Z,51.29
2023-02-09T01:50:44.567Z,51.38
2023-02-09T01:53:18.777Z,51.32
2023-02-09T01:55:55.444Z,51.25
2023-02-09T01:58:29.154Z,51.17
2023-02-09T02:01:02.280Z,51.27
2023-02-09T02:03:34.942Z,51.31
2023-02-09T02:06:11.962Z,51.27
2023-02-09T02:08:50.201Z,51.34
2023-02-09T02:11:24.527Z,51.43
2023-02-09T02:13:57.036Z,51.44
2023-02-09T02:16:47.996Z,51.18
2023-02-09T02:19:54.378Z,51.26
2023-02-09T02:22:53.841Z,51.03
2023-02-09T02:25:57.178Z,51.00
2023-02-09T02:29:10.922Z,50.89
2023-02-09T02:32:10.847Z,50.74
2023-02-09T02:34:52.357Z,50.84
2023-02-09T02:37:38.673Z,50.88
2023-02-09T02:40:22.515Z,51.06
2023-02-09T02:43:01.378Z,50.83
2023-02-09T02:45:41.724Z,50.87
2023-02-09T02:48:32.374Z,50.92
2023-02-09T02:51:09.059Z,50.91
2023-02-09T02:53:44.769Z,51.03
2023-02-09T02:56:22.576Z,51.07
2023-02-09T02:58:58.328Z,51.02
2023-02-09T03:01:35.391Z,50.99
2023-02-09T03:04:09.358Z,51.06
2023-02-09T03:06:41.799Z,51.15
2023-02-09T03:09:14.892Z,51.34
2023-02-09T03:11:50.700Z,51.31
2023-02-09T03:14:34.776Z,51.29
2023-02-09T03:17:20.429Z,51.31
2023-02-09T03:19:57.359Z,51.53
2023-02-09T03:22:36.274Z,51.33
2023-02-09T03:25:15.632Z,51.53
2023-02-09T03:27:55.241Z,51.35
2023-02-09T03:30:28.350Z,51.59
2023-02-09T03:33:01.174Z,51.75
2023-02-09T03:35:40.045Z,51.62
2023-02-09T03:38:12.316Z,51.88
2023-02-09T03:40:44.781Z,51.73
2023-02-09T03:43:17.345Z,51.74
2023-02-09T03:45:49.758Z,51.80
2023-02-09T03:48:22.032Z,51.80
2023-02-09T03:50:54.335Z,51.84
2023-02-09T03:53:26.845Z,51.93
2023-02-09T03:55:59.135Z,51.89
2023-02-09T03:58:31.818Z,52.09
2023-02-09T04:01:08.195Z,51.95
2023-02-09T04:03:41.070Z,52.03
2023-02-09T04:06:13.287Z,51.96
2023-02-09T04:08:45.551Z,51.75
2023-02-09T04:11:17.878Z,51.79
2023-02-09T04:13:50.266Z,51.89
2023-02-09T04:16:22.803Z,52.01
2023-02-09T04:18:55.201Z,52.01
2023-02-09T04:21:27.571Z,51.84
2023-02-09T04:23:59.929Z,51.80
2023-02-09T04:26:32.417Z,51.92
2023-02-09T04:29:04.847Z,51.74
2023-02-09T04:31:37.512Z,51.82
2023-02-09T04:34:09.951Z,51.85
2023-02-09T04:36:42.363Z,51.90
2023-02-09T04:39:14.669Z,51.61
2023-02-09T04:41:47.180Z,51.69
2023-02-09T04:44:19.482Z,51.77
2023-02-09T04:46:51.948Z,52.00
2023-02-09T04:49:24.231Z,51.96
2023-02-09T04:51:56.599Z,52.00
2023-02-09T04:54:29.074Z,52.04
2023-02-09T04:57:15.055Z,52.08
2023-02-09T04:59:47.374Z,52.18
2023-02-09T05:02:19.756Z,51.99
2023-02-09T05:04:52.114Z,52.20
2023-02-09T05:07:26.653Z,52.24
2023-02-09T05:09:58.949Z,52.30
2023-02-09T05:12:31.189Z,52.29
2023-02-09T05:15:03.660Z,52.36
2023-02-09T05:17:36.038Z,52.41
2023-02-09T05:20:10.441Z,52.39
2023-02-09T05:22:42.782Z,52.31
2023-02-09T05:25:15.105Z,52.36
2023-02-09T05:27:47.376Z,52.35
2023-02-09T05:30:19.906Z,52.54
2023-02-09T05:32:52.103Z,52.34
2023-02-09T05:35:24.430Z,52.50
2023-02-09T05:37:56.671Z,52.56
2023-02-09T05:40:28.979Z,52.59
2023-02-09T05:43:02.634Z,52.54
2023-02-09T05:45:34.984Z,52.61
2023-02-09T05:48:07.638Z,52.63
2023-02-09T05:50:40.214Z,52.73
2023-02-09T05:53:14.439Z,52.63
2023-02-09T05:55:47.499Z,52.72
2023-02-09T05:58:19.793Z,52.61
2023-02-09T06:00:52.070Z,52.61
2023-02-09T06:03:24.344Z,52.63
2023-02-09T06:05:56.732Z,52.36
2023-02-09T06:08:29.043Z,52.43
2023-02-09T06:11:02.834Z,52.53
2023-02-09T06:13:35.244Z,52.33
2023-02-09T06:16:09.016Z,52.35
2023-02-09T06:18:41.289Z,52.37
2023-02-09T06:21:14.096Z,52.35
2023-02-09T06:23:46.512Z,52.55
2023-02-09T06:26:19.815Z,52.66
2023-02-09T06:28:52.243Z,52.56
2023-02-09T06:31:24.759Z,52.46
2023-02-09T06:33:57.195Z,52.46
2023-02-09T06:36:29.607Z,52.32
2023-02-09T06:39:02.020Z,52.23
2023-02-09T06:41:34.214Z,52.22
2023-02-09T06:44:06.848Z,52.08
2023-02-09T06:46:40.089Z,51.94
2023-02-09T06:49:12.364Z,51.68
2023-02-09T06:51:44.678Z,52.03
2023-02-09T06:54:17.038Z,51.92
2023-02-09T06:56:49.353Z,52.15
2023-02-09T06:59:21.747Z,51.42
2023-02-09T07:01:55.291Z,51.33
2023-02-09T07:04:28.057Z,51.35
2023-02-09T07:07:00.390Z,51.31
2023-02-09T07:09:32.583Z,51.09
2023-02-09T07:12:05.147Z,51.24
2023-02-09T07:14:37.411Z,51.02
2023-02-09T07:17:09.675Z,51.07
2023-02-09T07:19:41.974Z,50.64
2023-02-09T07:22:14.459Z,50.63
2023-02-09T07:24:46.885Z,50.45
2023-02-09T07:27:19.367Z,50.60
2023-02-09T07:29:51.935Z,50.32
2023-02-09T07:32:24.350Z,50.40
2023-02-09T07:34:56.651Z,50.47
2023-02-09T07:37:28.959Z,49.94
2023-02-09T07:40:01.612Z,49.95
2023-02-09T07:42:33.938Z,49.87
2023-02-09T07:45:09.151Z,50.15
2023-02-09T07:47:42.475Z,49.87
2023-02-09T07:50:14.682Z,50.03
2023-02-09T07:52:46.947Z,50.16
2023-02-09T07:55:19.216Z,50.09
2023-02-09T07:57:51.762Z,49.74
2023-02-09T08:00:25.660Z,49.61
2023-02-09T08:02:58.098Z,49.77
2023-02-09T08:05:36.440Z,49.68
2023-02-09T08:08:08.830Z,49.09
2023-02-09T08:10:42.846Z,49.28
2023-02-09T08:13:16.464Z,49.27
2023-02-09T08:15:52.922Z,49.36
2023-02-09T08:18:29.374Z,49.14
2023-02-09T08:21:01.887Z,49.02
2023-02-09T08:23:37.586Z,48.73
2023-02-09T08:26:13.863Z,48.64
2023-02-09T08:28:47.061Z,48.65
2023-02-09T08:31:21.907Z,48.52
2023-02-09T08:33:54.361Z,48.45
2023-02-09T08:36:26.798Z,48.26
2023-02-09T08:38:59.123Z,48.35
2023-02-09T08:41:31.438Z,47.95
2023-02-09T08:44:04.278Z,47.80
2023-02-09T08:46:37.674Z,47.51
2023-02-09T08:49:10.130Z,47.57
2023-02-09T08:51:42.407Z,47.74
2023-02-09T08:54:15.948Z,47.70
2023-02-09T08:56:48.269Z,47.19
2023-02-09T08:59:22.241Z,47.27
2023-02-09T09:01:54.762Z,47.02
2023-02-09T09:04:27.028Z,47.04
2023-02-09T09:06:59.350Z,46.86
2023-02-09T09:09:31.814Z,46.35
2023-02-09T09:12:04.041Z,45.98
2023-02-09T09:14:38.129Z,46.21
2023-02-09T09:17:10.490Z,46.47
2023-02-09T09:19:43.018Z,46.26
2023-02-09T09:22:15.406Z,45.93
2023-02-09T09:24:47.746Z,45.71
2023-02-09T09:27:20.037Z,45.97
2023-02-09T09:29:52.426Z,45.75
2023-02-09T09:32:25.174Z,45.28
2023-02-09T09:34:59.185Z,45.14
2023-02-09T09:37:31.461Z,45.21
2023-02-09T09:40:03.774Z,45.40
2023-02-09T09:42:39.606Z,45.47
2023-02-09T09:45:17.243Z,45.27
2023-02-09T09:47:51.735Z,45.48
2023-02-09T09:50:27.170Z,45.35
2023-02-09T09:53:03.212Z,45.03
2023-02-09T09:55:35.046Z,44.99
2023-02-09T09:58:09.434Z,45.11
2023-02-09T10:00:43.757Z,45.06
2023-02-09T10:03:19.257Z,44.82
2023-02-09T10:05:53.378Z,44.72
2023-02-09T10:08:34.003Z,44.54
2023-02-09T10:11:11.395Z,44.46
2023-02-09T10:13:49.331Z,44.25
2023-02-09T10:16:25.040Z,43.98
2023-02-09T10:18:58.761Z,44.47
2023-02-09T10:21:32.927Z,44.17
2023-02-09T10:24:16.744Z,44.11
2023-02-09T10:27:05.479Z,43.87
2023-02-09T10:29:38.481Z,43.71
2023-02-09T10:32:20.417Z,43.47
2023-02-09T10:34:54.953Z,43.55
2023-02-09T10:37:36.067Z,43.14
2023-02-09T10:40:19.164Z,43.10
2023-02-09T10:42:59.561Z,43.28
2023-02-09T10:45:39.757Z,42.77
2023-02-09T10:48:21.208Z,43.04
2023-02-09T10:50:56.117Z,42.96
2023-02-09T10:53:31.727Z,43.13
2023-02-09T10:56:07.481Z,42.67
2023-02-09T10:58:40.844Z,42.50
2023-02-09T11:01:23.596Z,42.54
2023-02-09T11:04:04.448Z,42.48
2023-02-09T11:06:48.026Z,42.08
2023-02-09T11:09:25.586Z,42.43
2023-02-09T11:11:58.518Z,42.38
2023-02-09T11:14:31.581Z,42.35
2023-02-09T11:17:17.779Z,42.24
2023-02-09T11:20:13.855Z,42.23
2023-02-09T11:22:56.294Z,42.25
2023-02-09T11:25:33.971Z,42.36
2023-02-09T11:28:20.622Z,41.91
2023-02-09T11:31:13.153Z,41.76
2023-02-09T11:33:52.726Z,41.94
2023-02-09T11:36:41.406Z,41.78
2023-02-09T11:39:18.422Z,41.71
2023-02-09T11:42:15.145Z,41.39
2023-02-09T11:44:55.936Z,41.41
2023-02-09T11:47:41.791Z,41.72
2023-02-09T11:50:25.699Z,41.42
2023-02-09T11:53:01.880Z,41.36
2023-02-09T11:55:38.684Z,41.18
2023-02-09T11:58:26.693Z,41.17
2023-02-09T12:01:14.799Z,41.08
2023-02-09T12:03:58.374Z,40.96
2023-02-09T12:06:34.534Z,40.86
2023-02-09T12:09:10.114Z,40.98
2023-02-09T12:11:53.904Z,40.90
2023-02-09T12:14:47.075Z,40.88
2023-02-09T12:17:24.158Z,40.90
2023-02-09T12:20:01.173Z,40.86
2023-02-09T12:22:50.437Z,40.77
2023-02-09T12:25:37.380Z,40.91
2023-02-09T12:28:44.221Z,40.89
2023-02-09T12:31:26.401Z,40.83
2023-02-09T12:34:38.921Z,40.83
2023-02-09T12:37:30.506Z,40.63
2023-02-09T12:40:24.982Z,40.88
2023-02-09T12:43:29.549Z,41.13
2023-02-09T12:46:24.598Z,41.10
2023-02-09T12:49:20.978Z,40.99
2023-02-09T12:52:13.468Z,40.88
2023-02-09T12:54:51.179Z,40.95
2023-02-09T12:57:55.301Z,41.15
2023-02-09T13:00:41.787Z,40.99
2023-02-09T13:03:18.368Z,41.12
2023-02-09T13:05:51.530Z,41.25
2023-02-09T13:08:29.721Z,41.22
2023-02-09T13:11:05.693Z,41.07
2023-02-09T13:13:46.249Z,41.12
2023-02-09T13:16:55.477Z,41.35
2023-02-09T13:19:48.331Z,41.46
2023-02-09T13:22:31.787Z,41.40
2023-02-09T13:25:14.297Z,41.36
2023-02-09T13:27:51.417Z,41.37
2023-02-09T13:30:32.239Z,41.28
2023-02-09T13:33:13.773Z,41.42
2023-02-09T13:35:58.372Z,41.62
2023-02-09T13:38:35.338Z,41.70
2023-02-09T13:41:10.664Z,41.59
2023-02-09T13:43:47.513Z,41.68
2023-02-09T13:46:28.284Z,41.53
2023-02-09T13:49:13.325Z,41.69
2023-02-09T13:51:46.302Z,41.49
2023-02-09T13:54:23.128Z,41.63
2023-02-09T13:56:55.542Z,41.67
2023-02-09T13:59:27.813Z,41.62
2023-02-09T14:02:00.183Z,41.61
2023-02-09T14:04:36.300Z,41.47
2023-02-09T14:07:11.688Z,41.60
2023-02-09T14:09:48.864Z,41.46
2023-02-09T14:12:45.836Z,41.54
2023-02-09T14:15:34.410Z,41.59
2023-02-09T14:18:20.646Z,41.48
2023-02-09T14:21:15.887Z,41.46
2023-02-09T14:23:50.101Z,41.47
2023-02-09T14:26:27.189Z,41.27
2023-02-09T14:29:18.088Z,41.35
2023-02-09T14:31:52.921Z,41.46
2023-02-09T14:34:37.850Z,41.55
2023-02-09T14:37:31.753Z,41.40
2023-02-09T14:40:21.395Z,41.30
2023-02-09T14:43:05.086Z,41.51
2023-02-09T14:45:43.470Z,41.57
2023-02-09T14:48:24.261Z,41.45
2023-02-09T14:50:58.992Z,41.57
2023-02-09T14:53:34.452Z,41.51
2023-02-09T14:56:07.524Z,41.20
2023-02-09T14:58:39.687Z,41.51
2023-02-09T15:01:13.274Z,41.56
2023-02-09T15:03:45.824Z,41.06
2023-02-09T15:06:18.003Z,41.04
2023-02-09T15:08:50.416Z,41.11
2023-02-09T15:11:42.932Z,41.01
2023-02-09T15:14:15.792Z,41.03
2023-02-09T15:16:48.056Z,41.17
2023-02-09T15:19:23.412Z,41.43
2023-02-09T15:22:06.485Z,41.36
2023-02-09T15:24:39.718Z,41.24
2023-02-09T15:27:20.938Z,40.96
2023-02-09T15:29:54.057Z,41.04
2023-02-09T15:32:27.537Z,41.52
2023-02-09T15:34:59.942Z,41.28
2023-02-09T15:37:38.401Z,41.41
2023-02-09T15:40:45.335Z,41.45
2023-02-09T15:43:39.118Z,41.40
2023-02-09T15:46:30.176Z,41.38
2023-02-09T15:49:03.507Z,41.26
2023-02-09T15:51:38.767Z,41.05
2023-02-09T15:54:16.629Z,41.36
2023-02-09T15:56:49.145Z,41.32
2023-02-09T15:59:23.448Z,41.21
2023-02-09T16:01:57.718Z,41.06
2023-02-09T16:04:31.923Z,41.52
2023-02-09T16:07:04.264Z,41.34
2023-02-09T16:09:36.929Z,41.10
2023-02-09T16:12:11.460Z,41.20
2023-02-09T16:14:43.804Z,40.92
2023-02-09T16:17:16.060Z,41.16
2023-02-09T16:19:49.150Z,40.97
2023-02-09T16:22:25.235Z,41.16
2023-02-09T16:24:57.611Z,40.84
2023-02-09T16:27:30.838Z,41.05
2023-02-09T16:30:03.136Z,41.17
2023-02-09T16:32:35.647Z,41.26
2023-02-09T16:35:16.730Z,41.05
2023-02-09T16:37:51.807Z,41.11
2023-02-09T16:40:30.977Z,40.88
2023-02-09T16:43:04.317Z,40.97
2023-02-09T16:45:38.891Z,40.81
2023-02-09T16:48:20.985Z,40.67
2023-02-09T16:50:55.609Z,40.97
2023-02-09T16:53:33.917Z,41.15
2023-02-09T16:56:13.162Z,41.18
2023-02-09T16:58:46.831Z,41.15
2023-02-09T17:01:22.756Z,41.28
2023-02-09T17:03:55.750Z,41.28
2023-02-09T17:06:31.080Z,41.28
2023-02-09T17:09:03.385Z,41.42
2023-02-09T17:11:35.620Z,41.31
2023-02-09T17:14:08.061Z,41.01
2023-02-09T17:16:43.450Z,41.07
2023-02-09T17:19:18.214Z,41.10
2023-02-09T17:21:50.588Z,40.68
2023-02-09T17:24:23.079Z,41.04
2023-02-09T17:26:56.856Z,40.81
2023-02-09T17:29:31.713Z,40.63
2023-02-09T17:32:05.582Z,40.57
2023-02-09T17:34:37.839Z,40.84
2023-02-09T17:37:16.925Z,40.87
2023-02-09T17:39:49.144Z,40.96
2023-02-09T17:42:24.476Z,40.67
2023-02-09T17:44:57.627Z,40.71
2023-02-09T17:47:30.695Z,40.95
2023-02-09T17:50:02.961Z,40.88
2023-02-09T17:52:35.301Z,41.28
2023-02-09T17:55:08.186Z,41.26
2023-02-09T17:57:41.732Z,40.94
2023-02-09T18:00:16.955Z,41.32
2023-02-09T18:02:49.359Z,41.32
2023-02-09T18:05:25.354Z,41.26
2023-02-09T18:07:56.194Z,41.04
2023-02-09T18:10:28.667Z,41.23
2023-02-09T18:13:00.979Z,41.12
2023-02-09T18:15:35.595Z,41.61
2023-02-09T18:18:08.096Z,41.49
2023-02-09T18:20:41.174Z,41.20
2023-02-09T18:23:16.721Z,41.22
2023-02-09T18:25:51.214Z,41.48
2023-02-09T18:28:23.581Z,41.36
2023-02-09T18:30:55.974Z,41.44
2023-02-09T18:33:28.363Z,41.55
2023-02-09T18:36:00.689Z,41.46
2023-02-09T18:38:32.886Z,41.32
2023-02-09T18:41:05.423Z,41.25
2023-02-09T18:43:37.760Z,41.40
2023-02-09T18:46:12.255Z,41.56
2023-02-09T18:48:44.598Z,41.59
2023-02-09T18:51:20.315Z,41.43
2023-02-09T18:53:53.900Z,41.38
2023-02-09T18:56:28.440Z,41.70
2023-02-09T18:59:00.986Z,41.53
2023-02-09T19:01:33.500Z,41.57
2023-02-09T19:04:06.090Z,41.65
2023-02-09T19:06:38.821Z,41.70
2023-02-09T19:09:11.284Z,41.66
2023-02-09T19:11:43.633Z,41.72
2023-02-09T19:14:33.377Z,41.75
2023-02-09T19:17:06.112Z,42.22
2023-02-09T19:19:39.098Z,41.79
2023-02-09T19:22:14.230Z,41.88
2023-02-09T19:24:47.539Z,41.88
2023-02-09T19:27:20.407Z,41.84
2023-02-09T19:29:56.146Z,41.84
2023-02-09T19:32:29.024Z,42.17
2023-02-09T19:35:01.453Z,42.34
2023-02-09T19:37:34.103Z,42.05
2023-02-09T19:40:17.557Z,42.29
2023-02-09T19:42:50.125Z,42.32
2023-02-09T19:45:22.533Z,42.26
2023-02-09T19:47:54.947Z,42.28
2023-02-09T19:50:27.354Z,42.60
2023-02-09T19:52:59.583Z,42.72
2023-02-09T19:55:31.991Z,42.62
2023-02-09T19:58:04.545Z,42.89
2023-02-09T20:00:36.805Z,42.90
2023-02-09T20:03:09.293Z,42.99
2023-02-09T20:05:44.569Z,43.22
2023-02-09T20:08:20.106Z,43.24
2023-02-09T20:10:52.466Z,43.20
2023-02-09T20:13:24.940Z,43.42
2023-02-09T20:15:57.433Z,43.46
2023-02-09T20:18:29.838Z,43.66
2023-02-09T20:21:02.180Z,43.78
2023-02-09T20:23:34.519Z,43.62
2023-02-09T20:26:13.989Z,43.84
2023-02-09T20:28:46.416Z,43.55
2023-02-09T20:31:20.909Z,44.00
2023-02-09T20:33:53.654Z,43.91
2023-02-09T20:36:26.388Z,43.91
2023-02-09T20:38:58.710Z,43.88
2023-02-09T20:41:30.978Z,44.07
2023-02-09T20:44:20.599Z,44.48
2023-02-09T20:47:00.097Z,44.05
2023-02-09T20:49:37.072Z,44.25
2023-02-09T20:52:10.119Z,44.02
2023-02-09T20:54:42.716Z,44.33
2023-02-09T20:57:14.947Z,44.27
2023-02-09T20:59:47.281Z,44.34
2023-02-09T21:02:19.540Z,44.30
2023-02-09T21:04:52.230Z,44.55
2023-02-09T21:07:25.549Z,44.54
2023-02-09T21:09:58.094Z,44.34
2023-02-09T21:12:30.426Z,44.56
2023-02-09T21:15:02.711Z,44.64
2023-02-09T21:17:35.105Z,44.66
2023-02-09T21:20:07.895Z,44.83
2023-02-09T21:22:40.189Z,44.76
2023-02-09T21:25:13.927Z,44.77
2023-02-09T21:27:46.621Z,44.78
2023-02-09T21:30:19.080Z,44.75
2023-02-09T21:32:51.350Z,44.94
2023-02-09T21:35:23.744Z,45.02
2023-02-09T21:37:56.172Z,45.19
2023-02-09T21:40:28.605Z,44.95
2023-02-09T21:43:00.959Z,45.24
2023-02-09T21:45:33.535Z,45.21
2023-02-09T21:48:05.912Z,45.08
2023-02-09T21:50:38.453Z,45.37
2023-02-09T21:53:10.963Z,45.27
2023-02-09T21:55:43.164Z,45.41
2023-02-09T21:58:15.762Z,45.33
2023-02-09T22:00:48.669Z,45.37
2023-02-09T22:03:21.149Z,45.37
2023-02-09T22:06:00.207Z,45.35
2023-02-09T22:08:32.565Z,45.12
2023-02-09T22:11:07.196Z,45.03
2023-02-09T22:13:39.495Z,45.41
2023-02-09T22:16:18.277Z,45.43
2023-02-09T22:18:50.969Z,45.46
2023-02-09T22:21:23.384Z,45.42
2023-02-09T22:23:56.114Z,45.45
2023-02-09T22:26:28.514Z,45.75
2023-02-09T22:29:00.869Z,45.45
2023-02-09T22:31:33.297Z,45.61
2023-02-09T22:34:07.367Z,45.71
2023-02-09T22:36:40.692Z,45.79
2023-02-09T22:39:13.044Z,45.71
2023-02-09T22:41:47.549Z,45.86
2023-02-09T22:44:20.263Z,45.86
2023-02-09T22:46:52.645Z,46.03
2023-02-09T22:49:24.938Z,46.14
2023-02-09T22:51:57.405Z,46.11
2023-02-09T22:54:29.718Z,46.18
2023-02-09T22:57:02.015Z,46.20
2023-02-09T22:59:36.326Z,46.18
2023-02-09T23:02:10.484Z,46.18
2023-02-09T23:04:44.006Z,46.33
2023-02-09T23:07:16.406Z,46.35
2023-02-09T23:09:48.669Z,46.35
2023-02-09T23:12:21.054Z,46.54
2023-02-09T23:14:54.746Z,46.51
2023-02-09T23:17:27.237Z,46.49
2023-02-09T23:19:59.540Z,46.50
2023-02-09T23:22:31.833Z,46.69
2023-02-09T23:25:04.122Z,46.60
2023-02-09T23:27:36.478Z,46.56
2023-02-09T23:30:10.023Z,46.39
2023-02-09T23:32:42.411Z,46.51
2023-02-09T23:35:14.765Z,46.48
2023-02-09T23:37:47.039Z,46.25
2023-02-09T23:40:19.921Z,46.16
2023-02-09T23:42:52.254Z,46.31
2023-02-09T23:45:24.664Z,46.58
2023-02-09T23:47:56.917Z,46.61
2023-02-09T23:50:29.329Z,46.61
2023-02-09T23:53:01.692Z,46.50
2023-02-09T23:55:33.950Z,46.46
2023-02-09T23:58:06.159Z,46.60
